< < Back
Terminal Aerodrome Forecast


Current Version              Previous Versions:   1  2  3  4  5  6  7  8  9  

Terminal Aerodrome Forecast

908
FTUS42 KCAE 020850 AAA
TAFAGS
TAF AMD
KAGS 020850Z 0209/0306 24005KT P6SM BKN120
     FM021600 25012G20KT P6SM SCT050 BKN150
     FM022100 24013G22KT P6SM VCTS BKN040CB
     FM030100 22008KT P6SM VCTS BKN040CB=



Latest METAR

856
SAUS70 KWBC 021200
MTRAGS
METAR KAGS 021153Z 14003KT 8SM CLR 22/20 A3002 RMK AO2 SLP162 60000
70001 T02220200 10228 20200 53008


USA.gov is the U.S. government's official web portal to all federal, state and local government web resources and services.